sensor_id;sensor_type;location;lat;lon;timestamp;pressure;altitude;pressure_sealevel;temperature;humidity
69911;BME280;63555;49.920;17.868;2024-02-23T00:02:51;96724.97;;;7.31;83.80
69911;BME280;63555;49.920;17.868;2024-02-23T00:07:54;96717.53;;;7.27;83.76
69911;BME280;63555;49.920;17.868;2024-02-23T00:12:54;96709.13;;;7.23;83.92
69911;BME280;63555;49.920;17.868;2024-02-23T00:17:54;96722.81;;;7.17;84.43
69911;BME280;63555;49.920;17.868;2024-02-23T00:22:55;96707.28;;;7.06;85.02
69911;BME280;63555;49.920;17.868;2024-02-23T00:27:55;96709.94;;;6.96;86.00
69911;BME280;63555;49.920;17.868;2024-02-23T00:32:55;96694.91;;;6.89;86.30
69911;BME280;63555;49.920;17.868;2024-02-23T00:37:56;96697.13;;;6.84;86.64
69911;BME280;63555;49.920;17.868;2024-02-23T00:42:56;96689.41;;;6.82;86.67
69911;BME280;63555;49.920;17.868;2024-02-23T00:47:57;96702.38;;;6.84;86.80
69911;BME280;63555;49.920;17.868;2024-02-23T00:52:57;96696.03;;;6.86;86.54
69911;BME280;63555;49.920;17.868;2024-02-23T00:57:57;96690.34;;;6.91;86.76
69911;BME280;63555;49.920;17.868;2024-02-23T01:02:59;96681.38;;;6.93;86.80
69911;BME280;63555;49.920;17.868;2024-02-23T01:08:00;96670.91;;;6.93;86.30
69911;BME280;63555;49.920;17.868;2024-02-23T01:13:00;96666.63;;;6.92;86.50
69911;BME280;63555;49.920;17.868;2024-02-23T01:18:01;96667.44;;;6.93;86.73
69911;BME280;63555;49.920;17.868;2024-02-23T01:23:01;96666.63;;;6.92;86.55
69911;BME280;63555;49.920;17.868;2024-02-23T01:28:02;96665.41;;;6.96;86.49
69911;BME280;63555;49.920;17.868;2024-02-23T01:33:03;96666.06;;;6.98;86.53
69911;BME280;63555;49.920;17.868;2024-02-23T01:38:04;96653.66;;;7.00;86.52
69911;BME280;63555;49.920;17.868;2024-02-23T01:43:05;96656.13;;;7.02;85.95
69911;BME280;63555;49.920;17.868;2024-02-23T01:48:06;96644.69;;;7.03;85.51
69911;BME280;63555;49.920;17.868;2024-02-23T01:53:07;96653.22;;;7.05;86.08
69911;BME280;63555;49.920;17.868;2024-02-23T01:58:07;96645.88;;;7.09;86.05
69911;BME280;63555;49.920;17.868;2024-02-23T02:03:08;96653.59;;;7.10;85.60
69911;BME280;63555;49.920;17.868;2024-02-23T02:08:10;96664.78;;;7.12;85.79
69911;BME280;63555;49.920;17.868;2024-02-23T02:13:10;96678.41;;;7.16;85.08
69911;BME280;63555;49.920;17.868;2024-02-23T02:18:11;96680.88;;;7.17;85.19
69911;BME280;63555;49.920;17.868;2024-02-23T02:23:11;96697.28;;;7.19;84.87
69911;BME280;63555;49.920;17.868;2024-02-23T02:28:11;96702.81;;;7.16;85.05
69911;BME280;63555;49.920;17.868;2024-02-23T02:33:12;96713.59;;;7.13;85.16
69911;BME280;63555;49.920;17.868;2024-02-23T02:38:12;96716.50;;;7.10;84.80
69911;BME280;63555;49.920;17.868;2024-02-23T02:43:13;96735.97;;;7.08;84.97
69911;BME280;63555;49.920;17.868;2024-02-23T02:48:13;96743.97;;;7.06;84.98
69911;BME280;63555;49.920;17.868;2024-02-23T02:53:13;96745.91;;;7.04;85.10
69911;BME280;63555;49.920;17.868;2024-02-23T02:58:14;96740.53;;;7.06;84.71
69911;BME280;63555;49.920;17.868;2024-02-23T03:03:14;96720.91;;;7.10;84.76
69911;BME280;63555;49.920;17.868;2024-02-23T03:08:15;96714.72;;;7.11;84.61
69911;BME280;63555;49.920;17.868;2024-02-23T03:13:15;96715.38;;;7.13;85.01
69911;BME280;63555;49.920;17.868;2024-02-23T03:18:15;96711.50;;;7.17;84.99
69911;BME280;63555;49.920;17.868;2024-02-23T03:23:16;96697.16;;;7.21;84.84
69911;BME280;63555;49.920;17.868;2024-02-23T03:28:17;96698.66;;;7.23;84.71
69911;BME280;63555;49.920;17.868;2024-02-23T03:33:17;96681.94;;;7.24;84.77
69911;BME280;63555;49.920;17.868;2024-02-23T03:38:17;96683.44;;;7.27;84.32
69911;BME280;63555;49.920;17.868;2024-02-23T03:43:18;96695.16;;;7.32;84.62
69911;BME280;63555;49.920;17.868;2024-02-23T03:48:18;96689.63;;;7.35;84.43
69911;BME280;63555;49.920;17.868;2024-02-23T03:53:18;96696.34;;;7.38;84.02
69911;BME280;63555;49.920;17.868;2024-02-23T03:58:19;96697.19;;;7.39;84.33
69911;BME280;63555;49.920;17.868;2024-02-23T04:03:19;96701.44;;;7.40;83.87
69911;BME280;63555;49.920;17.868;2024-02-23T04:08:22;96718.16;;;7.39;84.07
69911;BME280;63555;49.920;17.868;2024-02-23T04:13:24;96740.94;;;7.38;83.97
69911;BME280;63555;49.920;17.868;2024-02-23T04:18:25;96738.59;;;7.35;83.90
69911;BME280;63555;49.920;17.868;2024-02-23T04:23:25;96733.50;;;7.33;84.48
69911;BME280;63555;49.920;17.868;2024-02-23T04:28:26;96740.69;;;7.31;84.38
69911;BME280;63555;49.920;17.868;2024-02-23T04:33:30;96780.00;;;7.31;84.30
69911;BME280;63555;49.920;17.868;2024-02-23T04:38:31;96773.13;;;7.30;84.54
69911;BME280;63555;49.920;17.868;2024-02-23T04:43:32;96787.19;;;7.29;84.49
69911;BME280;63555;49.920;17.868;2024-02-23T04:48:32;96787.34;;;7.28;84.18
69911;BME280;63555;49.920;17.868;2024-02-23T04:53:36;96781.41;;;7.26;84.34
69911;BME280;63555;49.920;17.868;2024-02-23T04:58:37;96790.25;;;7.25;84.33
69911;BME280;63555;49.920;17.868;2024-02-23T05:03:38;96804.31;;;7.24;84.71
69911;BME280;63555;49.920;17.868;2024-02-23T05:08:38;96814.66;;;7.25;84.78
69911;BME280;63555;49.920;17.868;2024-02-23T05:13:38;96837.97;;;7.28;84.48
69911;BME280;63555;49.920;17.868;2024-02-23T05:18:42;96851.09;;;7.28;85.17
69911;BME280;63555;49.920;17.868;2024-02-23T05:23:43;96874.69;;;7.28;84.71
69911;BME280;63555;49.920;17.868;2024-02-23T05:28:43;96877.44;;;7.27;84.70
69911;BME280;63555;49.920;17.868;2024-02-23T05:33:44;96879.25;;;7.26;84.72
69911;BME280;63555;49.920;17.868;2024-02-23T05:38:44;96897.59;;;7.26;85.05
69911;BME280;63555;49.920;17.868;2024-02-23T05:43:46;96909.88;;;7.26;85.03
69911;BME280;63555;49.920;17.868;2024-02-23T05:48:46;96920.50;;;7.24;84.98
69911;BME280;63555;49.920;17.868;2024-02-23T05:53:47;96931.25;;;7.21;84.67
69911;BME280;63555;49.920;17.868;2024-02-23T05:58:47;96941.75;;;7.21;84.80
69911;BME280;63555;49.920;17.868;2024-02-23T06:03:48;96945.19;;;7.22;85.04
69911;BME280;63555;49.920;17.868;2024-02-23T06:08:49;96945.19;;;7.22;85.26
69911;BME280;63555;49.920;17.868;2024-02-23T06:13:52;96953.75;;;7.24;85.09
69911;BME280;63555;49.920;17.868;2024-02-23T06:18:53;96963.81;;;7.28;85.05
69911;BME280;63555;49.920;17.868;2024-02-23T06:23:53;96973.19;;;7.31;85.17
69911;BME280;63555;49.920;17.868;2024-02-23T06:28:53;96978.16;;;7.34;85.08
69911;BME280;63555;49.920;17.868;2024-02-23T06:33:54;96969.88;;;7.39;85.63
69911;BME280;63555;49.920;17.868;2024-02-23T06:38:54;96975.53;;;7.44;85.26
69911;BME280;63555;49.920;17.868;2024-02-23T06:43:55;96982.97;;;7.48;85.35
69911;BME280;63555;49.920;17.868;2024-02-23T06:48:55;96981.03;;;7.50;85.14
69911;BME280;63555;49.920;17.868;2024-02-23T06:53:58;96985.03;;;7.54;85.25
69911;BME280;63555;49.920;17.868;2024-02-23T06:58:58;96992.34;;;7.60;85.33
69911;BME280;63555;49.920;17.868;2024-02-23T07:03:58;96989.28;;;7.65;84.94
69911;BME280;63555;49.920;17.868;2024-02-23T07:08:59;97000.34;;;7.68;84.78
69911;BME280;63555;49.920;17.868;2024-02-23T07:13:59;97001.56;;;7.74;84.44
69911;BME280;63555;49.920;17.868;2024-02-23T07:19:00;97012.47;;;7.79;84.43
69911;BME280;63555;49.920;17.868;2024-02-23T07:24:00;97019.09;;;7.83;84.47
69911;BME280;63555;49.920;17.868;2024-02-23T07:29:01;97020.34;;;7.89;84.44
69911;BME280;63555;49.920;17.868;2024-02-23T07:34:01;97032.50;;;7.90;84.28
69911;BME280;63555;49.920;17.868;2024-02-23T07:39:04;97039.25;;;7.92;84.50
69911;BME280;63555;49.920;17.868;2024-02-23T07:44:04;97040.91;;;7.93;84.18
69911;BME280;63555;49.920;17.868;2024-02-23T07:49:05;97053.19;;;7.93;84.39
69911;BME280;63555;49.920;17.868;2024-02-23T07:54:09;97050.88;;;7.90;84.55
69911;BME280;63555;49.920;17.868;2024-02-23T07:59:10;97047.97;;;7.83;84.62
69911;BME280;63555;49.920;17.868;2024-02-23T08:04:11;97048.66;;;7.76;84.71
69911;BME280;63555;49.920;17.868;2024-02-23T08:09:13;97056.78;;;7.73;85.11
69911;BME280;63555;49.920;17.868;2024-02-23T08:14:14;97058.88;;;7.69;85.98
69911;BME280;63555;49.920;17.868;2024-02-23T08:19:14;97069.38;;;7.69;86.14
69911;BME280;63555;49.920;17.868;2024-02-23T08:24:14;97069.78;;;7.74;87.58
69911;BME280;63555;49.920;17.868;2024-02-23T08:29:15;97072.56;;;7.82;90.10
69911;BME280;63555;49.920;17.868;2024-02-23T08:34:15;97065.22;;;7.95;93.94
69911;BME280;63555;49.920;17.868;2024-02-23T08:39:17;97073.06;;;8.05;96.39
69911;BME280;63555;49.920;17.868;2024-02-23T08:44:18;97079.00;;;8.07;98.57
69911;BME280;63555;49.920;17.868;2024-02-23T08:49:18;97080.09;;;8.14;100.00
69911;BME280;63555;49.920;17.868;2024-02-23T08:54:18;97076.31;;;8.26;100.00
69911;BME280;63555;49.920;17.868;2024-02-23T08:59:19;97080.31;;;8.40;100.00
69911;BME280;63555;49.920;17.868;2024-02-23T09:04:19;97097.69;;;8.51;100.00
69911;BME280;63555;49.920;17.868;2024-02-23T09:09:19;97112.88;;;8.57;100.00
69911;BME280;63555;49.920;17.868;2024-02-23T09:14:20;97118.00;;;8.58;100.00
69911;BME280;63555;49.920;17.868;2024-02-23T09:19:21;97115.81;;;8.54;100.00
69911;BME280;63555;49.920;17.868;2024-02-23T09:24:21;97130.06;;;8.51;100.00
69911;BME280;63555;49.920;17.868;2024-02-23T09:29:21;97118.19;;;8.38;100.00
69911;BME280;63555;49.920;17.868;2024-02-23T09:34:22;97104.38;;;8.36;100.00
69911;BME280;63555;49.920;17.868;2024-02-23T09:39:22;97101.88;;;8.44;100.00
69911;BME280;63555;49.920;17.868;2024-02-23T09:44:23;97110.25;;;8.57;100.00
69911;BME280;63555;49.920;17.868;2024-02-23T09:49:23;97128.75;;;8.65;100.00
69911;BME280;63555;49.920;17.868;2024-02-23T09:54:24;97136.94;;;8.62;100.00
69911;BME280;63555;49.920;17.868;2024-02-23T09:59:24;97143.19;;;8.51;100.00
69911;BME280;63555;49.920;17.868;2024-02-23T10:04:28;97148.75;;;8.39;100.00
69911;BME280;63555;49.920;17.868;2024-02-23T10:09:29;97154.53;;;8.32;100.00
69911;BME280;63555;49.920;17.868;2024-02-23T10:14:30;97164.50;;;8.29;100.00
69911;BME280;63555;49.920;17.868;2024-02-23T10:19:30;97165.47;;;8.28;100.00
69911;BME280;63555;49.920;17.868;2024-02-23T10:24:31;97154.81;;;8.29;100.00
69911;BME280;63555;49.920;17.868;2024-02-23T10:29:31;97166.97;;;8.30;100.00
69911;BME280;63555;49.920;17.868;2024-02-23T10:34:32;97175.97;;;8.28;100.00
69911;BME280;63555;49.920;17.868;2024-02-23T10:39:36;97188.84;;;8.21;100.00
69911;BME280;63555;49.920;17.868;2024-02-23T10:44:38;97178.19;;;8.23;100.00
69911;BME280;63555;49.920;17.868;2024-02-23T10:49:39;97187.72;;;8.24;100.00
69911;BME280;63555;49.920;17.868;2024-02-23T10:54:40;97191.59;;;8.20;100.00
69911;BME280;63555;49.920;17.868;2024-02-23T10:59:41;97183.31;;;8.15;100.00
69911;BME280;63555;49.920;17.868;2024-02-23T11:04:42;97187.75;;;8.05;100.00
69911;BME280;63555;49.920;17.868;2024-02-23T11:09:43;97182.63;;;7.93;100.00
69911;BME280;63555;49.920;17.868;2024-02-23T11:14:44;97201.56;;;7.87;100.00
69911;BME280;63555;49.920;17.868;2024-02-23T11:19:46;97203.31;;;7.77;100.00
69911;BME280;63555;49.920;17.868;2024-02-23T11:24:49;97203.44;;;7.66;100.00
69911;BME280;63555;49.920;17.868;2024-02-23T11:30:07;97200.66;;;7.58;100.00
69911;BME280;63555;49.920;17.868;2024-02-23T11:35:10;97203.97;;;7.60;100.00
69911;BME280;63555;49.920;17.868;2024-02-23T11:40:12;97187.28;;;7.71;100.00
69911;BME280;63555;49.920;17.868;2024-02-23T11:45:13;97194.50;;;7.88;100.00
69911;BME280;63555;49.920;17.868;2024-02-23T11:50:14;97179.88;;;8.05;100.00
69911;BME280;63555;49.920;17.868;2024-02-23T11:55:19;97191.59;;;8.29;100.00
69911;BME280;63555;49.920;17.868;2024-02-23T12:00:23;97192.41;;;8.49;100.00
69911;BME280;63555;49.920;17.868;2024-02-23T12:05:24;97202.88;;;8.78;100.00
69911;BME280;63555;49.920;17.868;2024-02-23T12:10:24;97193.28;;;8.97;100.00
69911;BME280;63555;49.920;17.868;2024-02-23T12:15:25;97199.31;;;9.07;100.00
69911;BME280;63555;49.920;17.868;2024-02-23T12:20:26;97192.50;;;9.14;100.00
69911;BME280;63555;49.920;17.868;2024-02-23T12:25:26;97194.84;;;9.17;100.00
69911;BME280;63555;49.920;17.868;2024-02-23T12:30:27;97199.94;;;9.18;100.00
69911;BME280;63555;49.920;17.868;2024-02-23T12:35:28;97200.38;;;9.14;100.00
69911;BME280;63555;49.920;17.868;2024-02-23T12:40:29;97204.91;;;8.94;100.00
69911;BME280;63555;49.920;17.868;2024-02-23T12:45:29;97196.31;;;8.92;100.00
69911;BME280;63555;49.920;17.868;2024-02-23T12:50:30;97196.16;;;9.03;100.00
69911;BME280;63555;49.920;17.868;2024-02-23T12:55:31;97191.75;;;8.94;100.00
69911;BME280;63555;49.920;17.868;2024-02-23T13:00:31;97201.19;;;8.87;100.00
69911;BME280;63555;49.920;17.868;2024-02-23T13:05:32;97208.41;;;8.66;100.00
69911;BME280;63555;49.920;17.868;2024-02-23T13:10:33;97215.38;;;8.47;100.00
69911;BME280;63555;49.920;17.868;2024-02-23T13:15:35;97222.97;;;8.41;100.00
69911;BME280;63555;49.920;17.868;2024-02-23T13:20:38;97225.59;;;8.21;100.00
69911;BME280;63555;49.920;17.868;2024-02-23T13:25:39;97244.94;;;8.11;100.00
69911;BME280;63555;49.920;17.868;2024-02-23T13:30:43;97252.53;;;7.94;100.00
69911;BME280;63555;49.920;17.868;2024-02-23T13:35:43;97243.81;;;7.84;100.00
69911;BME280;63555;49.920;17.868;2024-02-23T13:40:44;97245.44;;;7.76;100.00
69911;BME280;63555;49.920;17.868;2024-02-23T13:45:51;97239.75;;;7.71;100.00
69911;BME280;63555;49.920;17.868;2024-02-23T13:50:53;97236.31;;;7.70;100.00
69911;BME280;63555;49.920;17.868;2024-02-23T13:55:53;97233.56;;;7.72;100.00
69911;BME280;63555;49.920;17.868;2024-02-23T14:00:54;97236.78;;;7.85;100.00
69911;BME280;63555;49.920;17.868;2024-02-23T14:05:54;97230.84;;;7.92;100.00
69911;BME280;63555;49.920;17.868;2024-02-23T14:10:54;97229.59;;;7.87;100.00
69911;BME280;63555;49.920;17.868;2024-02-23T14:15:55;97225.19;;;7.87;100.00
69911;BME280;63555;49.920;17.868;2024-02-23T14:20:55;97219.53;;;7.92;100.00
69911;BME280;63555;49.920;17.868;2024-02-23T14:25:56;97222.16;;;7.92;100.00
69911;BME280;63555;49.920;17.868;2024-02-23T14:30:56;97226.84;;;7.88;100.00
69911;BME280;63555;49.920;17.868;2024-02-23T14:35:56;97238.56;;;7.84;100.00
69911;BME280;63555;49.920;17.868;2024-02-23T14:40:57;97230.38;;;7.78;100.00
69911;BME280;63555;49.920;17.868;2024-02-23T14:45:58;97230.09;;;7.71;100.00
69911;BME280;63555;49.920;17.868;2024-02-23T14:50:58;97232.56;;;7.63;100.00
69911;BME280;63555;49.920;17.868;2024-02-23T14:55:59;97232.44;;;7.64;100.00
69911;BME280;63555;49.920;17.868;2024-02-23T15:00:59;97229.94;;;7.63;100.00
69911;BME280;63555;49.920;17.868;2024-02-23T15:06:00;97227.59;;;7.60;100.00
69911;BME280;63555;49.920;17.868;2024-02-23T15:11:02;97236.97;;;7.53;100.00
69911;BME280;63555;49.920;17.868;2024-02-23T15:16:02;97244.41;;;7.48;100.00
69911;BME280;63555;49.920;17.868;2024-02-23T15:21:03;97226.59;;;7.42;100.00
69911;BME280;63555;49.920;17.868;2024-02-23T15:26:03;97226.72;;;7.40;100.00
69911;BME280;63555;49.920;17.868;2024-02-23T15:31:04;97226.72;;;7.40;100.00
69911;BME280;63555;49.920;17.868;2024-02-23T15:36:06;97228.78;;;7.37;100.00
69911;BME280;63555;49.920;17.868;2024-02-23T15:41:08;97232.94;;;7.39;100.00
69911;BME280;63555;49.920;17.868;2024-02-23T15:46:08;97244.25;;;7.40;100.00
69911;BME280;63555;49.920;17.868;2024-02-23T15:51:09;97229.63;;;7.37;100.00
69911;BME280;63555;49.920;17.868;2024-02-23T15:56:09;97233.59;;;7.31;100.00
69911;BME280;63555;49.920;17.868;2024-02-23T16:01:10;97226.97;;;7.27;100.00
69911;BME280;63555;49.920;17.868;2024-02-23T16:06:10;97224.59;;;7.24;100.00
69911;BME280;63555;49.920;17.868;2024-02-23T16:11:11;97222.25;;;7.21;100.00
69911;BME280;63555;49.920;17.868;2024-02-23T16:16:12;97220.03;;;7.17;100.00
69911;BME280;63555;49.920;17.868;2024-02-23T16:21:14;97216.72;;;7.15;100.00
69911;BME280;63555;49.920;17.868;2024-02-23T16:26:16;97219.59;;;7.12;100.00
69911;BME280;63555;49.920;17.868;2024-02-23T16:31:16;97214.50;;;7.10;100.00
69911;BME280;63555;49.920;17.868;2024-02-23T16:36:17;97232.69;;;7.12;100.00
69911;BME280;63555;49.920;17.868;2024-02-23T16:41:17;97226.63;;;7.11;100.00
69911;BME280;63555;49.920;17.868;2024-02-23T16:46:18;97228.41;;;7.11;100.00
69911;BME280;63555;49.920;17.868;2024-02-23T16:51:18;97228.00;;;7.06;100.00
69911;BME280;63555;49.920;17.868;2024-02-23T16:56:19;97226.28;;;6.95;100.00
69911;BME280;63555;49.920;17.868;2024-02-23T17:01:19;97239.75;;;6.90;100.00
69911;BME280;63555;49.920;17.868;2024-02-23T17:06:20;97234.19;;;6.84;100.00
69911;BME280;63555;49.920;17.868;2024-02-23T17:11:20;97235.69;;;6.77;100.00
69911;BME280;63555;49.920;17.868;2024-02-23T17:16:20;97234.97;;;6.75;100.00
69911;BME280;63555;49.920;17.868;2024-02-23T17:21:27;97227.78;;;6.67;100.00
69911;BME280;63555;49.920;17.868;2024-02-23T17:26:27;97233.41;;;6.62;100.00
69911;BME280;63555;49.920;17.868;2024-02-23T17:31:28;97230.78;;;6.62;100.00
69911;BME280;63555;49.920;17.868;2024-02-23T17:41:47;97216.41;;;6.57;100.00
69911;BME280;63555;49.920;17.868;2024-02-23T17:46:48;97215.84;;;6.53;100.00
69911;BME280;63555;49.920;17.868;2024-02-23T17:51:48;97228.09;;;6.53;100.00
69911;BME280;63555;49.920;17.868;2024-02-23T17:56:48;97218.72;;;6.50;100.00
69911;BME280;63555;49.920;17.868;2024-02-23T18:01:50;97211.25;;;6.46;100.00
69911;BME280;63555;49.920;17.868;2024-02-23T18:06:50;97203.53;;;6.44;100.00
69911;BME280;63555;49.920;17.868;2024-02-23T18:11:50;97209.13;;;6.39;100.00
69911;BME280;63555;49.920;17.868;2024-02-23T18:16:51;97199.19;;;6.33;100.00
69911;BME280;63555;49.920;17.868;2024-02-23T18:21:51;97196.81;;;6.30;100.00
69911;BME280;63555;49.920;17.868;2024-02-23T18:26:51;97188.53;;;6.25;100.00
69911;BME280;63555;49.920;17.868;2024-02-23T18:31:52;97190.44;;;6.23;100.00
69911;BME280;63555;49.920;17.868;2024-02-23T18:36:52;97190.56;;;6.22;100.00
69911;BME280;63555;49.920;17.868;2024-02-23T18:41:53;97184.63;;;6.20;100.00
69911;BME280;63555;49.920;17.868;2024-02-23T18:46:53;97186.53;;;6.18;100.00
69911;BME280;63555;49.920;17.868;2024-02-23T18:51:54;97184.88;;;6.17;100.00
69911;BME280;63555;49.920;17.868;2024-02-23T18:56:54;97181.81;;;6.12;100.00
69911;BME280;63555;49.920;17.868;2024-02-23T19:01:55;97171.59;;;6.09;100.00
69911;BME280;63555;49.920;17.868;2024-02-23T19:06:55;97176.97;;;6.07;100.00
69911;BME280;63555;49.920;17.868;2024-02-23T19:11:56;97158.88;;;6.04;100.00
69911;BME280;63555;49.920;17.868;2024-02-23T19:16:56;97158.66;;;6.07;100.00
69911;BME280;63555;49.920;17.868;2024-02-23T19:21:57;97149.94;;;6.06;100.00
69911;BME280;63555;49.920;17.868;2024-02-23T19:26:58;97140.22;;;6.09;100.00
69911;BME280;63555;49.920;17.868;2024-02-23T19:32:00;97136.84;;;6.06;100.00
69911;BME280;63555;49.920;17.868;2024-02-23T19:37:00;97133.41;;;6.06;100.00
69911;BME280;63555;49.920;17.868;2024-02-23T19:42:01;97124.63;;;6.07;100.00
69911;BME280;63555;49.920;17.868;2024-02-23T19:47:01;97111.41;;;6.09;100.00
69911;BME280;63555;49.920;17.868;2024-02-23T19:52:01;97109.75;;;6.07;100.00
69911;BME280;63555;49.920;17.868;2024-02-23T19:57:02;97103.69;;;6.07;100.00
69911;BME280;63555;49.920;17.868;2024-02-23T20:02:06;97106.41;;;6.05;100.00
69911;BME280;63555;49.920;17.868;2024-02-23T20:07:13;97113.44;;;6.05;100.00
69911;BME280;63555;49.920;17.868;2024-02-23T20:12:16;97102.75;;;6.08;100.00
69911;BME280;63555;49.920;17.868;2024-02-23T20:17:18;97111.16;;;6.12;100.00
69911;BME280;63555;49.920;17.868;2024-02-23T20:22:19;97108.28;;;6.15;100.00
69911;BME280;63555;49.920;17.868;2024-02-23T20:27:21;97103.88;;;6.15;100.00
69911;BME280;63555;49.920;17.868;2024-02-23T20:32:22;97106.63;;;6.14;100.00
69911;BME280;63555;49.920;17.868;2024-02-23T20:37:22;97099.88;;;6.11;100.00
69911;BME280;63555;49.920;17.868;2024-02-23T20:42:24;97092.72;;;6.13;100.00
69911;BME280;63555;49.920;17.868;2024-02-23T20:47:24;97086.66;;;6.13;100.00
69911;BME280;63555;49.920;17.868;2024-02-23T20:52:25;97080.59;;;6.12;100.00
69911;BME280;63555;49.920;17.868;2024-02-23T20:57:26;97078.81;;;6.13;100.00
69911;BME280;63555;49.920;17.868;2024-02-23T21:02:26;97069.28;;;6.12;100.00
69911;BME280;63555;49.920;17.868;2024-02-23T21:07:27;97066.81;;;6.10;100.00
69911;BME280;63555;49.920;17.868;2024-02-23T21:12:28;97064.19;;;6.10;100.00
69911;BME280;63555;49.920;17.868;2024-02-23T21:17:28;97045.16;;;6.08;100.00
69911;BME280;63555;49.920;17.868;2024-02-23T21:22:28;97035.53;;;6.09;100.00
69911;BME280;63555;49.920;17.868;2024-02-23T21:27:29;97039.22;;;6.06;100.00
69911;BME280;63555;49.920;17.868;2024-02-23T21:32:29;97019.97;;;6.07;100.00
69911;BME280;63555;49.920;17.868;2024-02-23T21:37:30;97016.63;;;6.05;100.00
69911;BME280;63555;49.920;17.868;2024-02-23T21:42:31;97015.78;;;6.04;100.00
69911;BME280;63555;49.920;17.868;2024-02-23T21:47:32;97017.00;;;6.00;100.00
69911;BME280;63555;49.920;17.868;2024-02-23T21:52:32;97018.81;;;6.00;100.00
69911;BME280;63555;49.920;17.868;2024-02-23T21:57:37;97020.47;;;6.01;100.00
69911;BME280;63555;49.920;17.868;2024-02-23T22:02:37;97010.00;;;6.01;100.00
69911;BME280;63555;49.920;17.868;2024-02-23T22:07:38;97009.16;;;6.00;100.00
69911;BME280;63555;49.920;17.868;2024-02-23T22:12:38;97014.41;;;6.00;100.00
69911;BME280;63555;49.920;17.868;2024-02-23T22:17:38;97014.41;;;6.00;100.00
69911;BME280;63555;49.920;17.868;2024-02-23T22:22:39;97015.09;;;6.02;100.00
69911;BME280;63555;49.920;17.868;2024-02-23T22:27:39;97010.69;;;6.03;100.00
69911;BME280;63555;49.920;17.868;2024-02-23T22:32:40;97009.03;;;6.02;100.00
69911;BME280;63555;49.920;17.868;2024-02-23T22:37:40;97014.25;;;6.02;100.00
69911;BME280;63555;49.920;17.868;2024-02-23T22:42:41;97001.06;;;6.03;100.00
69911;BME280;63555;49.920;17.868;2024-02-23T22:47:41;97004.38;;;6.05;100.00
69911;BME280;63555;49.920;17.868;2024-02-23T22:52:41;97000.78;;;6.06;100.00
69911;BME280;63555;49.920;17.868;2024-02-23T22:57:42;96991.06;;;6.09;100.00
69911;BME280;63555;49.920;17.868;2024-02-23T23:02:42;96987.22;;;6.13;100.00
69911;BME280;63555;49.920;17.868;2024-02-23T23:07:43;96989.56;;;6.16;100.00
69911;BME280;63555;49.920;17.868;2024-02-23T23:12:43;96974.69;;;6.16;100.00
69911;BME280;63555;49.920;17.868;2024-02-23T23:17:43;96978.97;;;6.17;100.00
69911;BME280;63555;49.920;17.868;2024-02-23T23:22:44;96973.59;;;6.19;100.00
69911;BME280;63555;49.920;17.868;2024-02-23T23:27:44;96967.41;;;6.20;100.00
69911;BME280;63555;49.920;17.868;2024-02-23T23:32:44;96959.41;;;6.21;100.00
69911;BME280;63555;49.920;17.868;2024-02-23T23:37:45;96960.13;;;6.23;100.00
69911;BME280;63555;49.920;17.868;2024-02-23T23:42:45;96947.59;;;6.27;100.00
69911;BME280;63555;49.920;17.868;2024-02-23T23:47:45;96944.44;;;6.33;100.00
69911;BME280;63555;49.920;17.868;2024-02-23T23:52:48;96935.78;;;6.42;100.00
69911;BME280;63555;49.920;17.868;2024-02-23T23:57:49;96925.03;;;6.55;100.00
